This is the latest recevied weather packets stored in our database for station/object K7CTM. If no packets are shown the sender has not sent any weather packets the latest 10 day(s).
| Time | Temp. | Humidity | Pressure | Rain* | Wind** | Luminosity | Snow |
|---|---|---|---|---|---|---|---|
| 1777996957 | 6.67° C | 46% | 1027.1 hPa | 0 mm | - | 458 W/m² | - |
| 1777996653 | 6.11° C | 48% | 1027.1 hPa | 0 mm | - | 412 W/m² | - |
| 1777996349 | 6.11° C | 46% | 1027.1 hPa | 0 mm | - | 349 W/m² | - |
| 1777995438 | 5° C | 50% | 1027.3 hPa | 0 mm | - | 251 W/m² | - |
| 1777995136 | 5° C | 54% | 1027.3 hPa | 0 mm | - | 187 W/m² | - |
| 1777993921 | 5° C | 56% | 1027.3 hPa | 0 mm | - | 323 W/m² | - |
| 1777991801 | 2.78° C | 65% | 1027.5 hPa | 0 mm | - | 343 W/m² | - |
| 1777991194 | 2.22° C | 66% | 1027.5 hPa | 0 mm | - | 261 W/m² | - |
| 1777990892 | 1.67° C | 68% | 1027.4 hPa | 0 mm | - | 261 W/m² | - |
| 1777990590 | 1.11° C | 71% | 1027.3 hPa | 0 mm | - | 283 W/m² | - |
| 1777989680 | 0.56° C | 72% | 1027.5 hPa | 0 mm | - | 107 W/m² | - |
| 1777988163 | 0° C | 72% | 1027.4 hPa | 0 mm | - | 167 W/m² | - |
| 1777987858 | 0° C | 75% | 1027.4 hPa | 0 mm | - | 94 W/m² | - |
| 1777987555 | 0° C | 75% | 1027.1 hPa | 0 mm | - | 83 W/m² | - |
| 1777987253 | 0° C | 74% | 1027.3 hPa | 0 mm | - | 80 W/m² | - |
| 1777986949 | 0° C | 74% | 1027 hPa | 0 mm | - | 70 W/m² | - |
| 1777986345 | -0.56° C | 73% | 1027 hPa | 0 mm | - | 59 W/m² | - |
| 1777984829 | -0.56° C | 73% | 1026.9 hPa | 0 mm | - | 28 W/m² | - |
| 1777984526 | -0.56° C | 74% | 1026.9 hPa | 0 mm | - | 23 W/m² | - |
| 1777984222 | -1.11° C | 73% | 1027 hPa | 0 mm | - | 19 W/m² | - |
| 1777983919 | -1.11° C | 74% | 1027 hPa | 0 mm | - | 14 W/m² | - |
| 1777983616 | -1.11° C | 74% | 1026.9 hPa | 0 mm | - | 12 W/m² | - |
| 1777982405 | -1.11° C | 74% | 1026.9 hPa | 0 mm | - | 3 W/m² | - |
| 1777981191 | -1.11° C | 75% | 1026.9 hPa | 0 mm | - | 0 W/m² | - |
| 1777980888 | -1.11° C | 75% | 1027 hPa | 0 mm | - | 0 W/m² | - |
* Rain latest hour (hover to see other rain measurements)
** Current wind speed in m/s (hover to see current wind gust speed)